Terminal Aerodrome Forecast
Issued by NWS

Home | Current Version | Previous Version | Text Only | Print | Product List | Glossary On
Versions: 1 2 3 4 5 6 7 8 9 10 11 12 13 14 15 16 17 18 19 20 21 22 23 24 25 26
000
FTUS45 KGJT 260258 AAA
TAFCNY
TAF AMD
KCNY 260258Z 2603/2624 09005KT P6SM BKN150
     FM260600 16006KT P6SM BKN150
     FM261600 20016G27KT P6SM FEW250
     FM262100 22021G35KT P6SM FEW250=

USA.gov is the U.S. government's official web portal to all federal, state and local government web resources and services.